Terminal Aerodrome Forecast
Issued by NWS

Home | Current Version | Previous Version | Text Only | Print | Product List | Glossary On
Versions: 1 2 3 4 5 6 7 8 9 10 11 12 13 14 15 16 17 18 19 20 21 22 23 24 25 26 27 28 29 30 31
000
FTUS44 KHGX 271001 AAA
TAFIAH
TAF AMD
KIAH 271001Z 2710/2812 18008KT P6SM BKN015 OVC020
      TEMPO 2710/2712 5SM BR
     FM271500 18013G20KT P6SM SCT015 BKN025
     FM271700 17014G21KT P6SM BKN035
     FM280300 17010KT P6SM BKN015 OVC030=

USA.gov is the U.S. government's official web portal to all federal, state and local government web resources and services.